sensor_id;sensor_type;location;lat;lon;timestamp;P1;durP1;ratioP1;P2;durP2;ratioP2
3953;SDS011;1991;48.682;9.030;2022-07-22T00:00:53;6.90;;;5.10;;
3953;SDS011;1991;48.682;9.030;2022-07-22T00:03:18;7.40;;;4.72;;
3953;SDS011;1991;48.682;9.030;2022-07-22T00:05:44;5.65;;;5.07;;
3953;SDS011;1991;48.682;9.030;2022-07-22T00:08:10;6.75;;;4.88;;
3953;SDS011;1991;48.682;9.030;2022-07-22T00:10:36;5.82;;;5.30;;
3953;SDS011;1991;48.682;9.030;2022-07-22T00:13:02;7.68;;;5.43;;
3953;SDS011;1991;48.682;9.030;2022-07-22T00:15:27;5.90;;;5.13;;
3953;SDS011;1991;48.682;9.030;2022-07-22T00:17:53;5.78;;;5.22;;
3953;SDS011;1991;48.682;9.030;2022-07-22T00:20:19;7.38;;;5.50;;
3953;SDS011;1991;48.682;9.030;2022-07-22T00:22:45;8.50;;;5.40;;
3953;SDS011;1991;48.682;9.030;2022-07-22T00:25:10;7.22;;;5.45;;
3953;SDS011;1991;48.682;9.030;2022-07-22T00:27:36;5.78;;;5.25;;
3953;SDS011;1991;48.682;9.030;2022-07-22T00:30:02;6.57;;;5.32;;
3953;SDS011;1991;48.682;9.030;2022-07-22T00:32:28;7.70;;;5.07;;
3953;SDS011;1991;48.682;9.030;2022-07-22T00:34:54;5.72;;;4.63;;
3953;SDS011;1991;48.682;9.030;2022-07-22T00:37:20;8.82;;;5.00;;
3953;SDS011;1991;48.682;9.030;2022-07-22T00:39:45;6.15;;;5.45;;
3953;SDS011;1991;48.682;9.030;2022-07-22T00:42:13;5.85;;;5.32;;
3953;SDS011;1991;48.682;9.030;2022-07-22T00:44:39;6.13;;;5.18;;
3953;SDS011;1991;48.682;9.030;2022-07-22T00:47:04;6.00;;;5.40;;
3953;SDS011;1991;48.682;9.030;2022-07-22T00:49:30;8.13;;;5.47;;
3953;SDS011;1991;48.682;9.030;2022-07-22T00:51:56;7.78;;;5.22;;
3953;SDS011;1991;48.682;9.030;2022-07-22T00:54:22;6.03;;;5.25;;
3953;SDS011;1991;48.682;9.030;2022-07-22T00:56:48;7.10;;;5.55;;
3953;SDS011;1991;48.682;9.030;2022-07-22T00:59:14;5.55;;;5.05;;
3953;SDS011;1991;48.682;9.030;2022-07-22T01:01:40;5.93;;;5.43;;
3953;SDS011;1991;48.682;9.030;2022-07-22T01:04:06;7.10;;;5.50;;
3953;SDS011;1991;48.682;9.030;2022-07-22T01:06:32;8.13;;;6.00;;
3953;SDS011;1991;48.682;9.030;2022-07-22T01:08:58;8.57;;;6.22;;
3953;SDS011;1991;48.682;9.030;2022-07-22T01:11:24;6.82;;;5.85;;
3953;SDS011;1991;48.682;9.030;2022-07-22T01:13:51;6.75;;;5.43;;
3953;SDS011;1991;48.682;9.030;2022-07-22T01:16:18;7.82;;;5.65;;
3953;SDS011;1991;48.682;9.030;2022-07-22T01:18:44;8.95;;;5.60;;
3953;SDS011;1991;48.682;9.030;2022-07-22T01:21:10;8.40;;;5.68;;
3953;SDS011;1991;48.682;9.030;2022-07-22T01:23:37;5.78;;;5.20;;
3953;SDS011;1991;48.682;9.030;2022-07-22T01:26:03;7.53;;;5.95;;
3953;SDS011;1991;48.682;9.030;2022-07-22T01:28:29;6.68;;;6.05;;
3953;SDS011;1991;48.682;9.030;2022-07-22T01:30:55;6.32;;;5.72;;
3953;SDS011;1991;48.682;9.030;2022-07-22T01:33:21;6.93;;;5.65;;
3953;SDS011;1991;48.682;9.030;2022-07-22T01:35:48;7.85;;;5.78;;
3953;SDS011;1991;48.682;9.030;2022-07-22T01:38:14;7.53;;;5.65;;
3953;SDS011;1991;48.682;9.030;2022-07-22T01:40:41;6.47;;;5.88;;
3953;SDS011;1991;48.682;9.030;2022-07-22T01:43:08;7.28;;;5.57;;
3953;SDS011;1991;48.682;9.030;2022-07-22T01:45:34;7.60;;;5.72;;
3953;SDS011;1991;48.682;9.030;2022-07-22T01:48:00;6.43;;;5.82;;
3953;SDS011;1991;48.682;9.030;2022-07-22T01:50:27;6.75;;;5.90;;
3953;SDS011;1991;48.682;9.030;2022-07-22T01:52:52;6.43;;;5.82;;
3953;SDS011;1991;48.682;9.030;2022-07-22T01:55:18;6.50;;;5.80;;
3953;SDS011;1991;48.682;9.030;2022-07-22T01:57:44;7.13;;;5.82;;
3953;SDS011;1991;48.682;9.030;2022-07-22T02:00:10;6.43;;;5.80;;
3953;SDS011;1991;48.682;9.030;2022-07-22T02:02:36;6.90;;;6.20;;
3953;SDS011;1991;48.682;9.030;2022-07-22T02:05:02;8.10;;;6.05;;
3953;SDS011;1991;48.682;9.030;2022-07-22T02:07:29;7.63;;;6.10;;
3953;SDS011;1991;48.682;9.030;2022-07-22T02:09:55;7.07;;;5.80;;
3953;SDS011;1991;48.682;9.030;2022-07-22T02:12:20;8.82;;;6.13;;
3953;SDS011;1991;48.682;9.030;2022-07-22T02:14:46;6.30;;;5.70;;
3953;SDS011;1991;48.682;9.030;2022-07-22T02:17:12;6.57;;;5.45;;
3953;SDS011;1991;48.682;9.030;2022-07-22T02:19:38;6.78;;;6.10;;
3953;SDS011;1991;48.682;9.030;2022-07-22T02:22:05;6.63;;;5.95;;
3953;SDS011;1991;48.682;9.030;2022-07-22T02:24:31;6.88;;;6.28;;
3953;SDS011;1991;48.682;9.030;2022-07-22T02:26:57;6.90;;;6.20;;
3953;SDS011;1991;48.682;9.030;2022-07-22T02:29:23;9.93;;;6.20;;
3953;SDS011;1991;48.682;9.030;2022-07-22T02:31:48;6.07;;;5.55;;
3953;SDS011;1991;48.682;9.030;2022-07-22T02:34:14;8.82;;;6.22;;
3953;SDS011;1991;48.682;9.030;2022-07-22T02:36:40;8.23;;;6.45;;
3953;SDS011;1991;48.682;9.030;2022-07-22T02:39:05;9.15;;;6.55;;
3953;SDS011;1991;48.682;9.030;2022-07-22T02:41:31;8.02;;;6.15;;
3953;SDS011;1991;48.682;9.030;2022-07-22T02:43:57;8.07;;;6.57;;
3953;SDS011;1991;48.682;9.030;2022-07-22T02:46:23;7.03;;;6.35;;
3953;SDS011;1991;48.682;9.030;2022-07-22T02:48:49;10.30;;;6.45;;
3953;SDS011;1991;48.682;9.030;2022-07-22T02:51:15;8.82;;;6.35;;
3953;SDS011;1991;48.682;9.030;2022-07-22T02:53:41;8.52;;;6.22;;
3953;SDS011;1991;48.682;9.030;2022-07-22T02:56:07;7.20;;;6.50;;
3953;SDS011;1991;48.682;9.030;2022-07-22T02:58:33;9.05;;;6.47;;
3953;SDS011;1991;48.682;9.030;2022-07-22T03:00:58;8.50;;;6.55;;
3953;SDS011;1991;48.682;9.030;2022-07-22T03:03:24;6.88;;;6.25;;
3953;SDS011;1991;48.682;9.030;2022-07-22T03:05:50;6.97;;;6.32;;
3953;SDS011;1991;48.682;9.030;2022-07-22T03:08:16;7.00;;;6.05;;
3953;SDS011;1991;48.682;9.030;2022-07-22T03:10:41;9.40;;;6.40;;
3953;SDS011;1991;48.682;9.030;2022-07-22T03:13:07;8.75;;;6.45;;
3953;SDS011;1991;48.682;9.030;2022-07-22T03:15:33;9.35;;;6.20;;
3953;SDS011;1991;48.682;9.030;2022-07-22T03:17:58;7.10;;;5.82;;
3953;SDS011;1991;48.682;9.030;2022-07-22T03:20:24;6.68;;;6.07;;
3953;SDS011;1991;48.682;9.030;2022-07-22T03:22:50;6.68;;;5.63;;
3953;SDS011;1991;48.682;9.030;2022-07-22T03:25:15;7.03;;;6.40;;
3953;SDS011;1991;48.682;9.030;2022-07-22T03:27:41;8.05;;;6.90;;
3953;SDS011;1991;48.682;9.030;2022-07-22T03:30:07;6.90;;;6.15;;
3953;SDS011;1991;48.682;9.030;2022-07-22T03:32:33;9.55;;;6.32;;
3953;SDS011;1991;48.682;9.030;2022-07-22T03:34:58;9.80;;;6.70;;
3953;SDS011;1991;48.682;9.030;2022-07-22T03:37:24;7.43;;;6.55;;
3953;SDS011;1991;48.682;9.030;2022-07-22T03:39:49;6.80;;;6.20;;
3953;SDS011;1991;48.682;9.030;2022-07-22T03:42:15;7.30;;;6.70;;
3953;SDS011;1991;48.682;9.030;2022-07-22T03:44:41;10.35;;;5.88;;
3953;SDS011;1991;48.682;9.030;2022-07-22T03:47:06;8.15;;;6.43;;
3953;SDS011;1991;48.682;9.030;2022-07-22T03:49:32;7.25;;;5.97;;
3953;SDS011;1991;48.682;9.030;2022-07-22T03:51:58;8.27;;;6.43;;
3953;SDS011;1991;48.682;9.030;2022-07-22T03:54:23;7.30;;;6.40;;
3953;SDS011;1991;48.682;9.030;2022-07-22T03:56:49;6.40;;;5.80;;
3953;SDS011;1991;48.682;9.030;2022-07-22T03:59:15;7.30;;;6.60;;
3953;SDS011;1991;48.682;9.030;2022-07-22T04:01:41;7.57;;;6.88;;
3953;SDS011;1991;48.682;9.030;2022-07-22T04:04:07;6.75;;;6.10;;
3953;SDS011;1991;48.682;9.030;2022-07-22T04:06:33;7.95;;;6.60;;
3953;SDS011;1991;48.682;9.030;2022-07-22T04:08:58;7.65;;;6.55;;
3953;SDS011;1991;48.682;9.030;2022-07-22T04:11:24;7.53;;;6.78;;
3953;SDS011;1991;48.682;9.030;2022-07-22T04:13:50;7.43;;;6.70;;
3953;SDS011;1991;48.682;9.030;2022-07-22T04:16:15;7.25;;;6.50;;
3953;SDS011;1991;48.682;9.030;2022-07-22T04:18:41;7.72;;;6.82;;
3953;SDS011;1991;48.682;9.030;2022-07-22T04:21:06;7.72;;;6.70;;
3953;SDS011;1991;48.682;9.030;2022-07-22T04:23:32;9.50;;;6.68;;
3953;SDS011;1991;48.682;9.030;2022-07-22T04:25:58;8.27;;;6.53;;
3953;SDS011;1991;48.682;9.030;2022-07-22T04:28:23;7.07;;;6.43;;
3953;SDS011;1991;48.682;9.030;2022-07-22T04:30:49;7.53;;;6.38;;
3953;SDS011;1991;48.682;9.030;2022-07-22T04:33:14;11.00;;;7.07;;
3953;SDS011;1991;48.682;9.030;2022-07-22T04:35:40;7.15;;;6.45;;
3953;SDS011;1991;48.682;9.030;2022-07-22T04:38:05;7.55;;;6.85;;
3953;SDS011;1991;48.682;9.030;2022-07-22T04:40:31;7.82;;;7.00;;
3953;SDS011;1991;48.682;9.030;2022-07-22T04:42:57;7.72;;;6.78;;
3953;SDS011;1991;48.682;9.030;2022-07-22T04:45:22;7.57;;;6.68;;
3953;SDS011;1991;48.682;9.030;2022-07-22T04:47:48;8.38;;;7.57;;
3953;SDS011;1991;48.682;9.030;2022-07-22T04:50:13;8.18;;;7.38;;
3953;SDS011;1991;48.682;9.030;2022-07-22T04:52:39;7.80;;;7.03;;
3953;SDS011;1991;48.682;9.030;2022-07-22T04:55:05;9.07;;;6.93;;
3953;SDS011;1991;48.682;9.030;2022-07-22T04:57:31;7.72;;;6.75;;
3953;SDS011;1991;48.682;9.030;2022-07-22T04:59:56;9.98;;;7.70;;
3953;SDS011;1991;48.682;9.030;2022-07-22T05:02:22;8.10;;;7.30;;
3953;SDS011;1991;48.682;9.030;2022-07-22T05:04:48;12.55;;;8.98;;
3953;SDS011;1991;48.682;9.030;2022-07-22T05:07:13;8.57;;;7.15;;
3953;SDS011;1991;48.682;9.030;2022-07-22T05:09:39;10.88;;;7.53;;
3953;SDS011;1991;48.682;9.030;2022-07-22T05:12:05;11.20;;;7.38;;
3953;SDS011;1991;48.682;9.030;2022-07-22T05:14:31;11.13;;;8.07;;
3953;SDS011;1991;48.682;9.030;2022-07-22T05:16:56;8.88;;;7.70;;
3953;SDS011;1991;48.682;9.030;2022-07-22T05:19:22;9.57;;;7.68;;
3953;SDS011;1991;48.682;9.030;2022-07-22T05:21:47;9.70;;;7.85;;
3953;SDS011;1991;48.682;9.030;2022-07-22T05:24:13;9.30;;;8.27;;
3953;SDS011;1991;48.682;9.030;2022-07-22T05:26:39;9.73;;;7.80;;
3953;SDS011;1991;48.682;9.030;2022-07-22T05:29:04;12.65;;;8.88;;
3953;SDS011;1991;48.682;9.030;2022-07-22T05:31:30;8.57;;;7.68;;
3953;SDS011;1991;48.682;9.030;2022-07-22T05:33:56;10.32;;;8.48;;
3953;SDS011;1991;48.682;9.030;2022-07-22T05:36:22;9.35;;;8.10;;
3953;SDS011;1991;48.682;9.030;2022-07-22T05:38:47;11.35;;;8.40;;
3953;SDS011;1991;48.682;9.030;2022-07-22T05:41:13;9.35;;;8.27;;
3953;SDS011;1991;48.682;9.030;2022-07-22T05:43:39;10.05;;;8.65;;
3953;SDS011;1991;48.682;9.030;2022-07-22T05:46:05;10.25;;;9.20;;
3953;SDS011;1991;48.682;9.030;2022-07-22T05:48:32;10.13;;;8.65;;
3953;SDS011;1991;48.682;9.030;2022-07-22T05:50:57;11.43;;;9.23;;
3953;SDS011;1991;48.682;9.030;2022-07-22T05:53:23;9.68;;;8.70;;
3953;SDS011;1991;48.682;9.030;2022-07-22T05:55:49;9.45;;;8.48;;
3953;SDS011;1991;48.682;9.030;2022-07-22T05:58:15;11.48;;;8.77;;
3953;SDS011;1991;48.682;9.030;2022-07-22T06:00:40;10.07;;;8.55;;
3953;SDS011;1991;48.682;9.030;2022-07-22T06:03:06;10.07;;;8.68;;
3953;SDS011;1991;48.682;9.030;2022-07-22T06:05:32;9.27;;;8.30;;
3953;SDS011;1991;48.682;9.030;2022-07-22T06:07:58;10.55;;;7.70;;
3953;SDS011;1991;48.682;9.030;2022-07-22T06:10:23;9.35;;;7.65;;
3953;SDS011;1991;48.682;9.030;2022-07-22T06:12:49;12.77;;;8.40;;
3953;SDS011;1991;48.682;9.030;2022-07-22T06:15:14;8.85;;;7.70;;
3953;SDS011;1991;48.682;9.030;2022-07-22T06:17:40;9.50;;;7.78;;
3953;SDS011;1991;48.682;9.030;2022-07-22T06:20:06;10.38;;;8.02;;
3953;SDS011;1991;48.682;9.030;2022-07-22T06:22:31;9.23;;;7.85;;
3953;SDS011;1991;48.682;9.030;2022-07-22T06:24:57;11.57;;;7.72;;
3953;SDS011;1991;48.682;9.030;2022-07-22T06:27:23;9.05;;;7.18;;
3953;SDS011;1991;48.682;9.030;2022-07-22T06:29:48;8.60;;;7.68;;
3953;SDS011;1991;48.682;9.030;2022-07-22T06:32:14;10.52;;;7.25;;
3953;SDS011;1991;48.682;9.030;2022-07-22T06:34:39;9.32;;;7.57;;
3953;SDS011;1991;48.682;9.030;2022-07-22T06:37:05;7.95;;;7.18;;
3953;SDS011;1991;48.682;9.030;2022-07-22T06:39:31;9.32;;;7.13;;
3953;SDS011;1991;48.682;9.030;2022-07-22T06:41:56;9.40;;;7.35;;
3953;SDS011;1991;48.682;9.030;2022-07-22T06:44:22;8.65;;;7.20;;
3953;SDS011;1991;48.682;9.030;2022-07-22T06:46:48;10.38;;;8.05;;
3953;SDS011;1991;48.682;9.030;2022-07-22T06:49:14;8.30;;;7.43;;
3953;SDS011;1991;48.682;9.030;2022-07-22T06:51:39;9.32;;;7.50;;
3953;SDS011;1991;48.682;9.030;2022-07-22T06:54:05;8.13;;;6.78;;
3953;SDS011;1991;48.682;9.030;2022-07-22T06:56:31;7.85;;;7.15;;
3953;SDS011;1991;48.682;9.030;2022-07-22T06:58:56;9.30;;;7.70;;
3953;SDS011;1991;48.682;9.030;2022-07-22T07:01:22;10.73;;;7.00;;
3953;SDS011;1991;48.682;9.030;2022-07-22T07:03:48;8.70;;;7.43;;
3953;SDS011;1991;48.682;9.030;2022-07-22T07:06:13;8.93;;;7.15;;
3953;SDS011;1991;48.682;9.030;2022-07-22T07:08:39;13.77;;;7.50;;
3953;SDS011;1991;48.682;9.030;2022-07-22T07:11:05;9.07;;;7.32;;
3953;SDS011;1991;48.682;9.030;2022-07-22T07:13:31;8.68;;;7.82;;
3953;SDS011;1991;48.682;9.030;2022-07-22T07:15:57;8.85;;;6.78;;
3953;SDS011;1991;48.682;9.030;2022-07-22T07:18:23;11.38;;;7.65;;
3953;SDS011;1991;48.682;9.030;2022-07-22T07:20:49;7.72;;;6.82;;
3953;SDS011;1991;48.682;9.030;2022-07-22T07:23:14;10.05;;;6.97;;
3953;SDS011;1991;48.682;9.030;2022-07-22T07:25:40;8.70;;;7.22;;
3953;SDS011;1991;48.682;9.030;2022-07-22T07:28:06;8.70;;;7.75;;
3953;SDS011;1991;48.682;9.030;2022-07-22T07:30:32;8.05;;;7.25;;
3953;SDS011;1991;48.682;9.030;2022-07-22T07:32:57;9.93;;;6.95;;
3953;SDS011;1991;48.682;9.030;2022-07-22T07:35:25;7.80;;;7.05;;
3953;SDS011;1991;48.682;9.030;2022-07-22T07:37:51;8.18;;;7.07;;
3953;SDS011;1991;48.682;9.030;2022-07-22T07:40:17;8.63;;;6.95;;
3953;SDS011;1991;48.682;9.030;2022-07-22T07:42:43;8.15;;;6.35;;
3953;SDS011;1991;48.682;9.030;2022-07-22T07:45:09;9.20;;;7.35;;
3953;SDS011;1991;48.682;9.030;2022-07-22T07:47:35;8.18;;;7.25;;
3953;SDS011;1991;48.682;9.030;2022-07-22T07:50:00;8.55;;;6.90;;
3953;SDS011;1991;48.682;9.030;2022-07-22T07:52:27;9.95;;;7.15;;
3953;SDS011;1991;48.682;9.030;2022-07-22T07:54:54;7.60;;;6.45;;
3953;SDS011;1991;48.682;9.030;2022-07-22T07:57:21;7.82;;;7.03;;
3953;SDS011;1991;48.682;9.030;2022-07-22T07:59:47;8.35;;;7.50;;
3953;SDS011;1991;48.682;9.030;2022-07-22T08:02:12;7.80;;;6.88;;
3953;SDS011;1991;48.682;9.030;2022-07-22T08:04:38;7.55;;;6.78;;
3953;SDS011;1991;48.682;9.030;2022-07-22T08:07:04;7.00;;;6.38;;
3953;SDS011;1991;48.682;9.030;2022-07-22T08:09:31;7.78;;;6.97;;
3953;SDS011;1991;48.682;9.030;2022-07-22T08:11:58;8.50;;;7.70;;
3953;SDS011;1991;48.682;9.030;2022-07-22T08:14:23;7.43;;;6.28;;
3953;SDS011;1991;48.682;9.030;2022-07-22T08:16:49;7.78;;;6.97;;
3953;SDS011;1991;48.682;9.030;2022-07-22T08:19:15;6.82;;;6.20;;
3953;SDS011;1991;48.682;9.030;2022-07-22T08:21:41;8.20;;;6.43;;
3953;SDS011;1991;48.682;9.030;2022-07-22T08:24:08;7.90;;;7.10;;
3953;SDS011;1991;48.682;9.030;2022-07-22T08:26:34;7.78;;;6.80;;
3953;SDS011;1991;48.682;9.030;2022-07-22T08:29:00;8.40;;;6.53;;
3953;SDS011;1991;48.682;9.030;2022-07-22T08:31:29;7.68;;;5.93;;
3953;SDS011;1991;48.682;9.030;2022-07-22T08:33:57;9.18;;;6.13;;
3953;SDS011;1991;48.682;9.030;2022-07-22T08:36:24;7.28;;;6.50;;
3953;SDS011;1991;48.682;9.030;2022-07-22T08:38:49;10.32;;;7.05;;
3953;SDS011;1991;48.682;9.030;2022-07-22T08:41:15;7.38;;;6.35;;
3953;SDS011;1991;48.682;9.030;2022-07-22T08:43:42;9.52;;;6.35;;
3953;SDS011;1991;48.682;9.030;2022-07-22T08:46:09;7.07;;;6.32;;
3953;SDS011;1991;48.682;9.030;2022-07-22T08:48:38;8.50;;;6.05;;
3953;SDS011;1991;48.682;9.030;2022-07-22T08:51:05;8.13;;;5.93;;
3953;SDS011;1991;48.682;9.030;2022-07-22T08:53:31;7.38;;;6.05;;
3953;SDS011;1991;48.682;9.030;2022-07-22T08:55:57;6.32;;;5.72;;
3953;SDS011;1991;48.682;9.030;2022-07-22T08:58:26;6.50;;;5.88;;
3953;SDS011;1991;48.682;9.030;2022-07-22T09:03:30;6.90;;;5.68;;
3953;SDS011;1991;48.682;9.030;2022-07-22T09:05:56;7.13;;;5.97;;
3953;SDS011;1991;48.682;9.030;2022-07-22T09:08:21;7.20;;;6.40;;
3953;SDS011;1991;48.682;9.030;2022-07-22T09:10:47;6.70;;;5.88;;
3953;SDS011;1991;48.682;9.030;2022-07-22T09:13:14;8.70;;;5.53;;
3953;SDS011;1991;48.682;9.030;2022-07-22T09:15:53;10.00;;;6.20;;
3953;SDS011;1991;48.682;9.030;2022-07-22T09:18:20;7.03;;;6.22;;
3953;SDS011;1991;48.682;9.030;2022-07-22T09:20:46;8.77;;;6.20;;
3953;SDS011;1991;48.682;9.030;2022-07-22T09:23:18;8.73;;;5.40;;
3953;SDS011;1991;48.682;9.030;2022-07-22T09:25:49;8.95;;;5.10;;
3953;SDS011;1991;48.682;9.030;2022-07-22T09:28:16;6.65;;;6.05;;
3953;SDS011;1991;48.682;9.030;2022-07-22T09:30:47;7.63;;;5.35;;
3953;SDS011;1991;48.682;9.030;2022-07-22T09:33:13;6.70;;;5.28;;
3953;SDS011;1991;48.682;9.030;2022-07-22T09:35:39;6.95;;;5.40;;
3953;SDS011;1991;48.682;9.030;2022-07-22T09:38:06;7.00;;;6.40;;
3953;SDS011;1991;48.682;9.030;2022-07-22T09:40:43;6.20;;;5.65;;
3953;SDS011;1991;48.682;9.030;2022-07-22T09:43:11;6.13;;;5.63;;
3953;SDS011;1991;48.682;9.030;2022-07-22T09:45:52;6.35;;;5.72;;
3953;SDS011;1991;48.682;9.030;2022-07-22T09:48:22;8.30;;;6.03;;
3953;SDS011;1991;48.682;9.030;2022-07-22T09:50:48;8.52;;;5.72;;
3953;SDS011;1991;48.682;9.030;2022-07-22T09:53:18;5.63;;;5.15;;
3953;SDS011;1991;48.682;9.030;2022-07-22T09:55:45;6.43;;;5.53;;
3953;SDS011;1991;48.682;9.030;2022-07-22T09:58:12;8.05;;;5.60;;
3953;SDS011;1991;48.682;9.030;2022-07-22T10:00:38;6.50;;;5.45;;
3953;SDS011;1991;48.682;9.030;2022-07-22T10:03:06;6.68;;;5.20;;
3953;SDS011;1991;48.682;9.030;2022-07-22T10:05:37;6.82;;;5.53;;
3953;SDS011;1991;48.682;9.030;2022-07-22T10:08:04;7.25;;;5.57;;
3953;SDS011;1991;48.682;9.030;2022-07-22T10:10:31;6.88;;;6.10;;
3953;SDS011;1991;48.682;9.030;2022-07-22T10:12:59;6.22;;;5.63;;
3953;SDS011;1991;48.682;9.030;2022-07-22T10:15:26;6.38;;;5.63;;
3953;SDS011;1991;48.682;9.030;2022-07-22T10:17:54;7.70;;;5.68;;
3953;SDS011;1991;48.682;9.030;2022-07-22T10:20:22;8.38;;;5.78;;
3953;SDS011;1991;48.682;9.030;2022-07-22T10:25:24;6.22;;;5.72;;
3953;SDS011;1991;48.682;9.030;2022-07-22T10:27:52;9.15;;;5.88;;
3953;SDS011;1991;48.682;9.030;2022-07-22T10:35:31;6.70;;;6.15;;
3953;SDS011;1991;48.682;9.030;2022-07-22T10:37:59;6.32;;;5.50;;
3953;SDS011;1991;48.682;9.030;2022-07-22T10:40:28;6.60;;;5.38;;
3953;SDS011;1991;48.682;9.030;2022-07-22T10:45:31;6.20;;;5.70;;
3953;SDS011;1991;48.682;9.030;2022-07-22T10:48:08;7.45;;;5.70;;
3953;SDS011;1991;48.682;9.030;2022-07-22T10:50:43;6.80;;;5.80;;
3953;SDS011;1991;48.682;9.030;2022-07-22T10:53:15;8.60;;;5.45;;
3953;SDS011;1991;48.682;9.030;2022-07-22T11:00:59;6.10;;;5.57;;
3953;SDS011;1991;48.682;9.030;2022-07-22T11:03:33;6.53;;;5.75;;
3953;SDS011;1991;48.682;9.030;2022-07-22T11:08:50;6.35;;;5.75;;
3953;SDS011;1991;48.682;9.030;2022-07-22T11:11:18;5.82;;;5.07;;
3953;SDS011;1991;48.682;9.030;2022-07-22T11:14:03;7.38;;;5.60;;
3953;SDS011;1991;48.682;9.030;2022-07-22T11:16:36;5.90;;;5.43;;
3953;SDS011;1991;48.682;9.030;2022-07-22T11:19:02;6.05;;;5.13;;
3953;SDS011;1991;48.682;9.030;2022-07-22T11:21:28;6.57;;;5.82;;
3953;SDS011;1991;48.682;9.030;2022-07-22T11:23:57;7.47;;;5.50;;
3953;SDS011;1991;48.682;9.030;2022-07-22T11:26:42;7.35;;;5.63;;
3953;SDS011;1991;48.682;9.030;2022-07-22T11:29:09;5.65;;;5.10;;
3953;SDS011;1991;48.682;9.030;2022-07-22T11:31:40;8.07;;;5.78;;
3953;SDS011;1991;48.682;9.030;2022-07-22T11:34:07;7.55;;;5.32;;
3953;SDS011;1991;48.682;9.030;2022-07-22T11:36:37;5.85;;;5.25;;
3953;SDS011;1991;48.682;9.030;2022-07-22T11:39:05;6.15;;;5.65;;
3953;SDS011;1991;48.682;9.030;2022-07-22T11:41:31;5.55;;;5.10;;
3953;SDS011;1991;48.682;9.030;2022-07-22T11:43:58;6.68;;;5.53;;
3953;SDS011;1991;48.682;9.030;2022-07-22T11:46:24;5.78;;;5.07;;
3953;SDS011;1991;48.682;9.030;2022-07-22T11:48:51;6.03;;;5.43;;
3953;SDS011;1991;48.682;9.030;2022-07-22T11:51:26;5.80;;;5.20;;
3953;SDS011;1991;48.682;9.030;2022-07-22T11:53:56;6.03;;;5.53;;
3953;SDS011;1991;48.682;9.030;2022-07-22T11:56:23;5.57;;;5.18;;
3953;SDS011;1991;48.682;9.030;2022-07-22T11:58:49;8.07;;;5.47;;
3953;SDS011;1991;48.682;9.030;2022-07-22T12:01:19;5.88;;;5.28;;
3953;SDS011;1991;48.682;9.030;2022-07-22T12:03:47;8.60;;;5.60;;
3953;SDS011;1991;48.682;9.030;2022-07-22T12:06:15;6.93;;;5.60;;
3953;SDS011;1991;48.682;9.030;2022-07-22T12:08:42;6.22;;;5.30;;
3953;SDS011;1991;48.682;9.030;2022-07-22T12:11:10;6.55;;;5.25;;
3953;SDS011;1991;48.682;9.030;2022-07-22T12:13:42;6.13;;;5.30;;
3953;SDS011;1991;48.682;9.030;2022-07-22T12:18:50;6.20;;;5.45;;
3953;SDS011;1991;48.682;9.030;2022-07-22T12:21:25;5.90;;;5.40;;
3953;SDS011;1991;48.682;9.030;2022-07-22T12:23:52;5.60;;;5.20;;
3953;SDS011;1991;48.682;9.030;2022-07-22T12:29:22;7.68;;;5.30;;
3953;SDS011;1991;48.682;9.030;2022-07-22T12:31:50;6.68;;;5.20;;
3953;SDS011;1991;48.682;9.030;2022-07-22T12:34:30;5.55;;;5.05;;
3953;SDS011;1991;48.682;9.030;2022-07-22T12:37:18;6.38;;;5.22;;
3953;SDS011;1991;48.682;9.030;2022-07-22T12:42:23;8.30;;;5.43;;
3953;SDS011;1991;48.682;9.030;2022-07-22T12:44:50;6.78;;;5.57;;
3953;SDS011;1991;48.682;9.030;2022-07-22T12:47:46;6.13;;;5.55;;
3953;SDS011;1991;48.682;9.030;2022-07-22T12:50:33;7.13;;;5.10;;
3953;SDS011;1991;48.682;9.030;2022-07-22T12:53:18;6.10;;;5.45;;
3953;SDS011;1991;48.682;9.030;2022-07-22T12:55:44;5.30;;;4.88;;
3953;SDS011;1991;48.682;9.030;2022-07-22T12:58:12;5.20;;;4.70;;
3953;SDS011;1991;48.682;9.030;2022-07-22T13:00:39;5.53;;;5.05;;
3953;SDS011;1991;48.682;9.030;2022-07-22T13:03:06;5.15;;;4.75;;
3953;SDS011;1991;48.682;9.030;2022-07-22T13:05:32;5.30;;;4.80;;
3953;SDS011;1991;48.682;9.030;2022-07-22T13:07:59;8.02;;;4.82;;
3953;SDS011;1991;48.682;9.030;2022-07-22T13:10:25;5.65;;;5.25;;
3953;SDS011;1991;48.682;9.030;2022-07-22T13:12:51;5.68;;;5.07;;
3953;SDS011;1991;48.682;9.030;2022-07-22T13:15:18;6.82;;;4.85;;
3953;SDS011;1991;48.682;9.030;2022-07-22T13:17:44;6.60;;;4.68;;
3953;SDS011;1991;48.682;9.030;2022-07-22T13:20:11;5.53;;;5.13;;
3953;SDS011;1991;48.682;9.030;2022-07-22T13:22:39;5.78;;;5.20;;
3953;SDS011;1991;48.682;9.030;2022-07-22T13:25:05;6.40;;;5.18;;
3953;SDS011;1991;48.682;9.030;2022-07-22T13:27:31;5.75;;;5.25;;
3953;SDS011;1991;48.682;9.030;2022-07-22T13:29:57;7.38;;;5.72;;
3953;SDS011;1991;48.682;9.030;2022-07-22T13:32:22;5.53;;;5.05;;
3953;SDS011;1991;48.682;9.030;2022-07-22T13:34:48;5.55;;;4.45;;
3953;SDS011;1991;48.682;9.030;2022-07-22T13:37:14;6.22;;;5.20;;
3953;SDS011;1991;48.682;9.030;2022-07-22T13:39:39;5.85;;;5.35;;
3953;SDS011;1991;48.682;9.030;2022-07-22T13:42:10;8.00;;;5.78;;
3953;SDS011;1991;48.682;9.030;2022-07-22T13:44:37;5.57;;;5.07;;
3953;SDS011;1991;48.682;9.030;2022-07-22T13:47:04;7.25;;;6.32;;
3953;SDS011;1991;48.682;9.030;2022-07-22T13:49:29;7.03;;;5.53;;
3953;SDS011;1991;48.682;9.030;2022-07-22T13:51:55;6.90;;;5.25;;
3953;SDS011;1991;48.682;9.030;2022-07-22T13:54:21;7.15;;;5.47;;
3953;SDS011;1991;48.682;9.030;2022-07-22T13:56:46;5.70;;;5.10;;
3953;SDS011;1991;48.682;9.030;2022-07-22T13:59:13;6.60;;;5.85;;
3953;SDS011;1991;48.682;9.030;2022-07-22T14:01:39;5.65;;;5.25;;
3953;SDS011;1991;48.682;9.030;2022-07-22T14:04:05;6.15;;;5.50;;
3953;SDS011;1991;48.682;9.030;2022-07-22T14:06:31;5.32;;;4.82;;
3953;SDS011;1991;48.682;9.030;2022-07-22T14:08:57;5.95;;;5.28;;
3953;SDS011;1991;48.682;9.030;2022-07-22T14:11:23;6.60;;;5.50;;
3953;SDS011;1991;48.682;9.030;2022-07-22T14:13:48;6.20;;;5.60;;
3953;SDS011;1991;48.682;9.030;2022-07-22T14:16:14;6.13;;;5.32;;
3953;SDS011;1991;48.682;9.030;2022-07-22T14:18:58;6.15;;;5.28;;
3953;SDS011;1991;48.682;9.030;2022-07-22T14:21:34;6.00;;;5.30;;
3953;SDS011;1991;48.682;9.030;2022-07-22T14:24:01;6.10;;;4.90;;
3953;SDS011;1991;48.682;9.030;2022-07-22T14:26:27;5.88;;;5.15;;
3953;SDS011;1991;48.682;9.030;2022-07-22T14:28:53;5.15;;;4.75;;
3953;SDS011;1991;48.682;9.030;2022-07-22T14:31:19;5.47;;;4.93;;
3953;SDS011;1991;48.682;9.030;2022-07-22T14:33:45;5.28;;;4.78;;
3953;SDS011;1991;48.682;9.030;2022-07-22T14:36:11;8.02;;;5.22;;
3953;SDS011;1991;48.682;9.030;2022-07-22T14:38:37;6.00;;;5.40;;
3953;SDS011;1991;48.682;9.030;2022-07-22T14:41:02;6.50;;;5.32;;
3953;SDS011;1991;48.682;9.030;2022-07-22T14:43:29;5.40;;;4.82;;
3953;SDS011;1991;48.682;9.030;2022-07-22T14:45:54;5.75;;;5.18;;
3953;SDS011;1991;48.682;9.030;2022-07-22T14:48:20;5.93;;;5.40;;
3953;SDS011;1991;48.682;9.030;2022-07-22T14:50:46;5.75;;;5.25;;
3953;SDS011;1991;48.682;9.030;2022-07-22T14:53:12;5.90;;;5.43;;
3953;SDS011;1991;48.682;9.030;2022-07-22T14:55:38;5.93;;;5.43;;
3953;SDS011;1991;48.682;9.030;2022-07-22T14:58:03;5.57;;;5.15;;
3953;SDS011;1991;48.682;9.030;2022-07-22T15:00:29;6.20;;;5.60;;
3953;SDS011;1991;48.682;9.030;2022-07-22T15:02:55;5.75;;;5.15;;
3953;SDS011;1991;48.682;9.030;2022-07-22T15:05:20;6.85;;;5.60;;
3953;SDS011;1991;48.682;9.030;2022-07-22T15:07:47;6.43;;;5.40;;
3953;SDS011;1991;48.682;9.030;2022-07-22T15:10:12;5.75;;;5.25;;
3953;SDS011;1991;48.682;9.030;2022-07-22T15:12:38;7.32;;;5.53;;
3953;SDS011;1991;48.682;9.030;2022-07-22T15:15:04;7.95;;;5.60;;
3953;SDS011;1991;48.682;9.030;2022-07-22T15:17:33;8.35;;;6.00;;
3953;SDS011;1991;48.682;9.030;2022-07-22T15:20:00;6.13;;;5.63;;
3953;SDS011;1991;48.682;9.030;2022-07-22T15:22:25;5.30;;;4.80;;
3953;SDS011;1991;48.682;9.030;2022-07-22T15:24:52;11.18;;;5.30;;
3953;SDS011;1991;48.682;9.030;2022-07-22T15:27:18;6.22;;;5.38;;
3953;SDS011;1991;48.682;9.030;2022-07-22T15:29:44;6.07;;;5.30;;
3953;SDS011;1991;48.682;9.030;2022-07-22T15:32:10;7.60;;;5.25;;
3953;SDS011;1991;48.682;9.030;2022-07-22T15:34:36;6.30;;;5.70;;
3953;SDS011;1991;48.682;9.030;2022-07-22T15:37:02;6.00;;;5.40;;
3953;SDS011;1991;48.682;9.030;2022-07-22T15:39:28;7.18;;;5.60;;
3953;SDS011;1991;48.682;9.030;2022-07-22T15:41:53;8.70;;;5.30;;